sensor_id;sensor_type;location;lat;lon;timestamp;P1;durP1;ratioP1;P2;durP2;ratioP2
57889;SDS011;43707;50.184;18.966;2022-12-22T00:01:40;31.60;;;14.10;;
57889;SDS011;43707;50.184;18.966;2022-12-22T00:04:28;36.60;;;14.90;;
57889;SDS011;43707;50.184;18.966;2022-12-22T00:07:12;29.40;;;13.70;;
57889;SDS011;43707;50.184;18.966;2022-12-22T00:09:56;35.20;;;15.60;;
57889;SDS011;43707;50.184;18.966;2022-12-22T00:12:40;41.30;;;17.00;;
57889;SDS011;43707;50.184;18.966;2022-12-22T00:15:24;35.90;;;14.50;;
57889;SDS011;43707;50.184;18.966;2022-12-22T00:18:15;34.50;;;16.20;;
57889;SDS011;43707;50.184;18.966;2022-12-22T00:20:59;36.10;;;17.10;;
57889;SDS011;43707;50.184;18.966;2022-12-22T00:23:43;38.80;;;16.00;;
57889;SDS011;43707;50.184;18.966;2022-12-22T00:26:27;37.60;;;16.10;;
57889;SDS011;43707;50.184;18.966;2022-12-22T00:29:13;40.70;;;19.10;;
57889;SDS011;43707;50.184;18.966;2022-12-22T00:31:58;33.10;;;16.30;;
57889;SDS011;43707;50.184;18.966;2022-12-22T00:34:43;40.10;;;16.40;;
57889;SDS011;43707;50.184;18.966;2022-12-22T00:37:28;35.60;;;16.40;;
57889;SDS011;43707;50.184;18.966;2022-12-22T00:40:21;34.50;;;17.30;;
57889;SDS011;43707;50.184;18.966;2022-12-22T00:43:08;42.40;;;18.40;;
57889;SDS011;43707;50.184;18.966;2022-12-22T00:45:52;42.70;;;19.30;;
57889;SDS011;43707;50.184;18.966;2022-12-22T00:48:37;33.80;;;16.60;;
57889;SDS011;43707;50.184;18.966;2022-12-22T00:51:22;33.30;;;15.90;;
57889;SDS011;43707;50.184;18.966;2022-12-22T00:54:07;35.70;;;16.30;;
57889;SDS011;43707;50.184;18.966;2022-12-22T00:56:53;36.00;;;18.10;;
57889;SDS011;43707;50.184;18.966;2022-12-22T00:59:37;39.40;;;18.90;;
57889;SDS011;43707;50.184;18.966;2022-12-22T01:02:21;37.70;;;18.70;;
57889;SDS011;43707;50.184;18.966;2022-12-22T01:05:05;37.60;;;18.00;;
57889;SDS011;43707;50.184;18.966;2022-12-22T01:07:50;36.30;;;17.20;;
57889;SDS011;43707;50.184;18.966;2022-12-22T01:10:34;42.80;;;19.20;;
57889;SDS011;43707;50.184;18.966;2022-12-22T01:13:18;36.20;;;17.20;;
57889;SDS011;43707;50.184;18.966;2022-12-22T01:16:03;36.40;;;16.60;;
57889;SDS011;43707;50.184;18.966;2022-12-22T01:18:47;39.60;;;16.90;;
57889;SDS011;43707;50.184;18.966;2022-12-22T01:21:31;30.90;;;15.70;;
57889;SDS011;43707;50.184;18.966;2022-12-22T01:24:16;25.60;;;13.60;;
57889;SDS011;43707;50.184;18.966;2022-12-22T01:27:01;30.30;;;16.20;;
57889;SDS011;43707;50.184;18.966;2022-12-22T01:29:46;27.80;;;14.30;;
57889;SDS011;43707;50.184;18.966;2022-12-22T01:32:30;29.80;;;14.60;;
57889;SDS011;43707;50.184;18.966;2022-12-22T01:35:16;26.80;;;13.10;;
57889;SDS011;43707;50.184;18.966;2022-12-22T01:38:05;29.90;;;14.20;;
57889;SDS011;43707;50.184;18.966;2022-12-22T01:40:49;23.60;;;12.40;;
57889;SDS011;43707;50.184;18.966;2022-12-22T01:43:34;25.00;;;13.00;;
57889;SDS011;43707;50.184;18.966;2022-12-22T01:46:26;24.40;;;12.50;;
57889;SDS011;43707;50.184;18.966;2022-12-22T01:49:22;24.60;;;12.90;;
57889;SDS011;43707;50.184;18.966;2022-12-22T01:52:10;24.10;;;12.60;;
57889;SDS011;43707;50.184;18.966;2022-12-22T01:54:55;20.00;;;11.90;;
57889;SDS011;43707;50.184;18.966;2022-12-22T01:57:43;23.70;;;13.30;;
57889;SDS011;43707;50.184;18.966;2022-12-22T02:00:27;19.50;;;10.00;;
57889;SDS011;43707;50.184;18.966;2022-12-22T02:03:15;19.70;;;10.30;;
57889;SDS011;43707;50.184;18.966;2022-12-22T02:06:04;25.10;;;12.00;;
57889;SDS011;43707;50.184;18.966;2022-12-22T02:08:54;20.30;;;11.30;;
57889;SDS011;43707;50.184;18.966;2022-12-22T02:12:06;23.30;;;11.50;;
57889;SDS011;43707;50.184;18.966;2022-12-22T02:15:06;19.30;;;11.00;;
57889;SDS011;43707;50.184;18.966;2022-12-22T02:18:06;21.00;;;11.10;;
57889;SDS011;43707;50.184;18.966;2022-12-22T02:21:02;16.40;;;10.10;;
57889;SDS011;43707;50.184;18.966;2022-12-22T02:26:58;20.40;;;11.30;;
57889;SDS011;43707;50.184;18.966;2022-12-22T02:29:48;21.40;;;11.30;;
57889;SDS011;43707;50.184;18.966;2022-12-22T02:32:35;22.70;;;11.70;;
57889;SDS011;43707;50.184;18.966;2022-12-22T02:35:21;16.80;;;10.50;;
57889;SDS011;43707;50.184;18.966;2022-12-22T02:41:19;17.50;;;10.20;;
57889;SDS011;43707;50.184;18.966;2022-12-22T02:44:18;19.00;;;10.40;;
57889;SDS011;43707;50.184;18.966;2022-12-22T02:50:03;22.10;;;11.30;;
57889;SDS011;43707;50.184;18.966;2022-12-22T02:52:50;20.20;;;10.90;;
57889;SDS011;43707;50.184;18.966;2022-12-22T02:55:34;14.60;;;9.60;;
57889;SDS011;43707;50.184;18.966;2022-12-22T02:58:18;18.90;;;10.30;;
57889;SDS011;43707;50.184;18.966;2022-12-22T03:01:03;25.00;;;13.10;;
57889;SDS011;43707;50.184;18.966;2022-12-22T03:03:47;21.10;;;11.60;;
57889;SDS011;43707;50.184;18.966;2022-12-22T03:06:32;19.70;;;10.80;;
57889;SDS011;43707;50.184;18.966;2022-12-22T03:09:16;19.20;;;10.80;;
57889;SDS011;43707;50.184;18.966;2022-12-22T03:12:00;17.60;;;9.40;;
57889;SDS011;43707;50.184;18.966;2022-12-22T03:14:44;24.80;;;12.40;;
57889;SDS011;43707;50.184;18.966;2022-12-22T03:17:28;21.70;;;12.10;;
57889;SDS011;43707;50.184;18.966;2022-12-22T03:20:12;23.10;;;12.30;;
57889;SDS011;43707;50.184;18.966;2022-12-22T03:23:01;22.40;;;11.90;;
57889;SDS011;43707;50.184;18.966;2022-12-22T03:25:46;23.20;;;12.40;;
57889;SDS011;43707;50.184;18.966;2022-12-22T03:28:18;22.60;;;12.10;;
57889;SDS011;43707;50.184;18.966;2022-12-22T03:30:53;36.40;;;17.70;;
57889;SDS011;43707;50.184;18.966;2022-12-22T03:33:21;56.40;;;25.10;;
57889;SDS011;43707;50.184;18.966;2022-12-22T03:35:46;28.90;;;15.40;;
57889;SDS011;43707;50.184;18.966;2022-12-22T03:38:12;30.20;;;14.80;;
57889;SDS011;43707;50.184;18.966;2022-12-22T03:40:37;52.80;;;24.40;;
57889;SDS011;43707;50.184;18.966;2022-12-22T03:43:02;68.10;;;27.00;;
57889;SDS011;43707;50.184;18.966;2022-12-22T03:45:46;32.70;;;17.20;;
57889;SDS011;43707;50.184;18.966;2022-12-22T03:48:31;19.10;;;11.20;;
57889;SDS011;43707;50.184;18.966;2022-12-22T03:50:57;18.80;;;10.30;;
57889;SDS011;43707;50.184;18.966;2022-12-22T03:53:23;21.50;;;11.70;;
57889;SDS011;43707;50.184;18.966;2022-12-22T03:55:48;24.00;;;13.20;;
57889;SDS011;43707;50.184;18.966;2022-12-22T03:58:13;19.20;;;11.60;;
57889;SDS011;43707;50.184;18.966;2022-12-22T04:00:39;22.50;;;13.10;;
57889;SDS011;43707;50.184;18.966;2022-12-22T04:03:04;26.20;;;11.40;;
57889;SDS011;43707;50.184;18.966;2022-12-22T04:05:30;24.10;;;11.80;;
57889;SDS011;43707;50.184;18.966;2022-12-22T04:07:55;20.90;;;11.60;;
57889;SDS011;43707;50.184;18.966;2022-12-22T04:10:20;21.90;;;11.80;;
57889;SDS011;43707;50.184;18.966;2022-12-22T04:13:04;22.20;;;11.00;;
57889;SDS011;43707;50.184;18.966;2022-12-22T04:15:30;20.30;;;11.30;;
57889;SDS011;43707;50.184;18.966;2022-12-22T04:17:56;24.10;;;12.60;;
57889;SDS011;43707;50.184;18.966;2022-12-22T04:20:23;20.70;;;12.10;;
57889;SDS011;43707;50.184;18.966;2022-12-22T04:22:53;13.50;;;9.10;;
57889;SDS011;43707;50.184;18.966;2022-12-22T04:25:19;22.70;;;13.10;;
57889;SDS011;43707;50.184;18.966;2022-12-22T04:27:45;22.20;;;13.10;;
57889;SDS011;43707;50.184;18.966;2022-12-22T04:30:10;19.70;;;10.80;;
57889;SDS011;43707;50.184;18.966;2022-12-22T04:32:36;16.90;;;9.70;;
57889;SDS011;43707;50.184;18.966;2022-12-22T04:35:02;20.50;;;11.60;;
57889;SDS011;43707;50.184;18.966;2022-12-22T04:37:28;19.30;;;11.10;;
57889;SDS011;43707;50.184;18.966;2022-12-22T04:39:53;21.60;;;11.50;;
57889;SDS011;43707;50.184;18.966;2022-12-22T04:42:22;24.30;;;12.10;;
57889;SDS011;43707;50.184;18.966;2022-12-22T04:44:48;20.60;;;10.50;;
57889;SDS011;43707;50.184;18.966;2022-12-22T04:47:14;21.10;;;11.70;;
57889;SDS011;43707;50.184;18.966;2022-12-22T04:49:40;18.70;;;11.80;;
57889;SDS011;43707;50.184;18.966;2022-12-22T04:52:05;18.30;;;11.00;;
57889;SDS011;43707;50.184;18.966;2022-12-22T04:54:31;20.00;;;11.70;;
57889;SDS011;43707;50.184;18.966;2022-12-22T04:56:56;18.50;;;10.50;;
57889;SDS011;43707;50.184;18.966;2022-12-22T04:59:22;18.70;;;9.60;;
57889;SDS011;43707;50.184;18.966;2022-12-22T05:01:47;23.30;;;12.70;;
57889;SDS011;43707;50.184;18.966;2022-12-22T05:04:14;23.20;;;11.80;;
57889;SDS011;43707;50.184;18.966;2022-12-22T05:06:39;18.60;;;12.10;;
57889;SDS011;43707;50.184;18.966;2022-12-22T05:09:05;25.10;;;13.40;;
57889;SDS011;43707;50.184;18.966;2022-12-22T05:11:30;21.60;;;12.30;;
57889;SDS011;43707;50.184;18.966;2022-12-22T05:13:55;22.80;;;12.20;;
57889;SDS011;43707;50.184;18.966;2022-12-22T05:16:21;19.40;;;11.80;;
57889;SDS011;43707;50.184;18.966;2022-12-22T05:18:46;19.50;;;12.20;;
57889;SDS011;43707;50.184;18.966;2022-12-22T05:21:13;19.00;;;10.10;;
57889;SDS011;43707;50.184;18.966;2022-12-22T05:23:39;20.70;;;12.70;;
57889;SDS011;43707;50.184;18.966;2022-12-22T05:26:05;26.60;;;13.70;;
57889;SDS011;43707;50.184;18.966;2022-12-22T05:28:31;52.80;;;19.10;;
57889;SDS011;43707;50.184;18.966;2022-12-22T05:31:01;42.40;;;20.50;;
57889;SDS011;43707;50.184;18.966;2022-12-22T05:35:55;41.70;;;18.70;;
57889;SDS011;43707;50.184;18.966;2022-12-22T05:38:21;38.40;;;18.30;;
57889;SDS011;43707;50.184;18.966;2022-12-22T05:40:47;29.90;;;16.00;;
57889;SDS011;43707;50.184;18.966;2022-12-22T05:43:12;32.70;;;16.50;;
57889;SDS011;43707;50.184;18.966;2022-12-22T05:45:38;37.10;;;20.20;;
57889;SDS011;43707;50.184;18.966;2022-12-22T05:48:03;40.80;;;20.60;;
57889;SDS011;43707;50.184;18.966;2022-12-22T05:50:29;74.30;;;25.30;;
57889;SDS011;43707;50.184;18.966;2022-12-22T05:52:55;68.20;;;25.40;;
57889;SDS011;43707;50.184;18.966;2022-12-22T05:55:26;56.30;;;24.50;;
57889;SDS011;43707;50.184;18.966;2022-12-22T05:57:52;55.40;;;22.60;;
57889;SDS011;43707;50.184;18.966;2022-12-22T06:00:17;47.00;;;18.80;;
57889;SDS011;43707;50.184;18.966;2022-12-22T06:02:43;41.30;;;19.00;;
57889;SDS011;43707;50.184;18.966;2022-12-22T06:05:09;46.00;;;20.30;;
57889;SDS011;43707;50.184;18.966;2022-12-22T06:07:36;54.00;;;21.00;;
57889;SDS011;43707;50.184;18.966;2022-12-22T06:10:02;48.80;;;21.40;;
57889;SDS011;43707;50.184;18.966;2022-12-22T06:12:28;48.90;;;21.80;;
57889;SDS011;43707;50.184;18.966;2022-12-22T06:14:54;55.50;;;25.70;;
57889;SDS011;43707;50.184;18.966;2022-12-22T06:17:20;53.20;;;24.50;;
57889;SDS011;43707;50.184;18.966;2022-12-22T06:19:45;46.70;;;25.10;;
57889;SDS011;43707;50.184;18.966;2022-12-22T06:22:11;62.50;;;31.20;;
57889;SDS011;43707;50.184;18.966;2022-12-22T06:24:36;85.80;;;38.20;;
57889;SDS011;43707;50.184;18.966;2022-12-22T06:27:02;75.30;;;35.80;;
57889;SDS011;43707;50.184;18.966;2022-12-22T06:29:27;76.40;;;33.70;;
57889;SDS011;43707;50.184;18.966;2022-12-22T06:31:53;76.40;;;32.20;;
57889;SDS011;43707;50.184;18.966;2022-12-22T06:34:19;75.30;;;28.60;;
57889;SDS011;43707;50.184;18.966;2022-12-22T06:36:45;74.70;;;27.50;;
57889;SDS011;43707;50.184;18.966;2022-12-22T06:39:11;77.30;;;29.40;;
57889;SDS011;43707;50.184;18.966;2022-12-22T06:41:37;77.50;;;29.00;;
57889;SDS011;43707;50.184;18.966;2022-12-22T06:44:22;70.90;;;27.80;;
57889;SDS011;43707;50.184;18.966;2022-12-22T06:46:47;66.80;;;28.30;;
57889;SDS011;43707;50.184;18.966;2022-12-22T06:49:13;56.80;;;23.40;;
57889;SDS011;43707;50.184;18.966;2022-12-22T06:51:39;51.70;;;21.60;;
57889;SDS011;43707;50.184;18.966;2022-12-22T06:54:04;45.20;;;21.00;;
57889;SDS011;43707;50.184;18.966;2022-12-22T06:56:30;54.00;;;25.60;;
57889;SDS011;43707;50.184;18.966;2022-12-22T06:58:55;62.30;;;25.30;;
57889;SDS011;43707;50.184;18.966;2022-12-22T07:01:21;50.60;;;22.40;;
57889;SDS011;43707;50.184;18.966;2022-12-22T07:03:46;42.40;;;20.80;;
57889;SDS011;43707;50.184;18.966;2022-12-22T07:06:12;44.50;;;22.30;;
57889;SDS011;43707;50.184;18.966;2022-12-22T07:08:37;34.90;;;18.30;;
57889;SDS011;43707;50.184;18.966;2022-12-22T07:11:03;31.60;;;16.60;;
57889;SDS011;43707;50.184;18.966;2022-12-22T07:13:32;41.40;;;20.50;;
57889;SDS011;43707;50.184;18.966;2022-12-22T07:15:59;44.50;;;20.70;;
57889;SDS011;43707;50.184;18.966;2022-12-22T07:18:25;39.20;;;22.40;;
57889;SDS011;43707;50.184;18.966;2022-12-22T07:20:52;45.80;;;23.00;;
57889;SDS011;43707;50.184;18.966;2022-12-22T07:23:17;42.50;;;21.60;;
57889;SDS011;43707;50.184;18.966;2022-12-22T07:25:42;47.80;;;23.60;;
57889;SDS011;43707;50.184;18.966;2022-12-22T07:28:08;42.00;;;20.20;;
57889;SDS011;43707;50.184;18.966;2022-12-22T07:30:33;40.50;;;19.00;;
57889;SDS011;43707;50.184;18.966;2022-12-22T07:33:01;38.00;;;18.30;;
57889;SDS011;43707;50.184;18.966;2022-12-22T07:35:27;35.50;;;19.20;;
57889;SDS011;43707;50.184;18.966;2022-12-22T07:37:53;32.10;;;17.80;;
57889;SDS011;43707;50.184;18.966;2022-12-22T07:40:18;40.60;;;21.50;;
57889;SDS011;43707;50.184;18.966;2022-12-22T07:42:44;46.30;;;21.40;;
57889;SDS011;43707;50.184;18.966;2022-12-22T07:45:13;47.50;;;24.50;;
57889;SDS011;43707;50.184;18.966;2022-12-22T07:47:41;38.80;;;19.10;;
57889;SDS011;43707;50.184;18.966;2022-12-22T07:50:17;34.70;;;19.70;;
57889;SDS011;43707;50.184;18.966;2022-12-22T07:52:50;41.00;;;20.20;;
57889;SDS011;43707;50.184;18.966;2022-12-22T07:55:17;37.20;;;19.40;;
57889;SDS011;43707;50.184;18.966;2022-12-22T07:57:44;35.30;;;20.40;;
57889;SDS011;43707;50.184;18.966;2022-12-22T08:03:01;36.00;;;19.10;;
57889;SDS011;43707;50.184;18.966;2022-12-22T08:05:27;32.70;;;18.70;;
57889;SDS011;43707;50.184;18.966;2022-12-22T08:07:53;30.50;;;17.20;;
57889;SDS011;43707;50.184;18.966;2022-12-22T08:10:35;29.90;;;17.50;;
57889;SDS011;43707;50.184;18.966;2022-12-22T08:13:01;39.00;;;20.70;;
57889;SDS011;43707;50.184;18.966;2022-12-22T08:28:16;38.80;;;19.50;;
57889;SDS011;43707;50.184;18.966;2022-12-22T08:33:32;58.00;;;24.30;;
57889;SDS011;43707;50.184;18.966;2022-12-22T08:36:00;40.90;;;19.80;;
57889;SDS011;43707;50.184;18.966;2022-12-22T08:38:28;46.80;;;20.30;;
57889;SDS011;43707;50.184;18.966;2022-12-22T08:44:02;47.60;;;21.00;;
57889;SDS011;43707;50.184;18.966;2022-12-22T08:49:15;52.50;;;23.50;;
57889;SDS011;43707;50.184;18.966;2022-12-22T08:51:42;52.80;;;25.50;;
57889;SDS011;43707;50.184;18.966;2022-12-22T08:54:08;45.60;;;21.70;;
57889;SDS011;43707;50.184;18.966;2022-12-22T08:56:33;53.50;;;26.70;;
57889;SDS011;43707;50.184;18.966;2022-12-22T08:59:02;64.20;;;27.10;;
57889;SDS011;43707;50.184;18.966;2022-12-22T09:01:30;66.90;;;26.70;;
57889;SDS011;43707;50.184;18.966;2022-12-22T09:03:59;60.70;;;25.40;;
57889;SDS011;43707;50.184;18.966;2022-12-22T09:06:25;48.80;;;19.60;;
57889;SDS011;43707;50.184;18.966;2022-12-22T09:08:58;41.00;;;18.20;;
57889;SDS011;43707;50.184;18.966;2022-12-22T09:11:28;41.10;;;17.00;;
57889;SDS011;43707;50.184;18.966;2022-12-22T09:13:55;43.40;;;18.50;;
57889;SDS011;43707;50.184;18.966;2022-12-22T09:16:29;41.30;;;16.90;;
57889;SDS011;43707;50.184;18.966;2022-12-22T09:18:55;39.30;;;19.10;;
57889;SDS011;43707;50.184;18.966;2022-12-22T09:21:22;36.00;;;17.10;;
57889;SDS011;43707;50.184;18.966;2022-12-22T09:23:48;32.10;;;15.60;;
57889;SDS011;43707;50.184;18.966;2022-12-22T09:26:15;39.30;;;17.80;;
57889;SDS011;43707;50.184;18.966;2022-12-22T09:28:42;39.70;;;19.60;;
57889;SDS011;43707;50.184;18.966;2022-12-22T09:31:08;46.20;;;20.80;;
57889;SDS011;43707;50.184;18.966;2022-12-22T09:33:34;36.80;;;19.00;;
57889;SDS011;43707;50.184;18.966;2022-12-22T09:36:09;41.90;;;19.10;;
57889;SDS011;43707;50.184;18.966;2022-12-22T09:38:41;40.90;;;19.80;;
57889;SDS011;43707;50.184;18.966;2022-12-22T09:41:08;35.70;;;17.10;;
57889;SDS011;43707;50.184;18.966;2022-12-22T09:43:40;63.60;;;27.50;;
57889;SDS011;43707;50.184;18.966;2022-12-22T09:48:53;35.50;;;17.30;;
57889;SDS011;43707;50.184;18.966;2022-12-22T09:51:19;30.60;;;14.40;;
57889;SDS011;43707;50.184;18.966;2022-12-22T09:53:55;28.60;;;15.70;;
57889;SDS011;43707;50.184;18.966;2022-12-22T09:56:22;28.30;;;14.40;;
57889;SDS011;43707;50.184;18.966;2022-12-22T09:58:52;21.00;;;12.70;;
57889;SDS011;43707;50.184;18.966;2022-12-22T10:01:30;25.20;;;13.50;;
57889;SDS011;43707;50.184;18.966;2022-12-22T10:06:57;16.30;;;9.60;;
57889;SDS011;43707;50.184;18.966;2022-12-22T10:09:25;17.50;;;10.40;;
57889;SDS011;43707;50.184;18.966;2022-12-22T10:11:57;18.60;;;11.30;;
57889;SDS011;43707;50.184;18.966;2022-12-22T10:14:24;15.60;;;8.30;;
57889;SDS011;43707;50.184;18.966;2022-12-22T10:19:40;17.90;;;9.90;;
57889;SDS011;43707;50.184;18.966;2022-12-22T10:22:18;21.30;;;11.10;;
57889;SDS011;43707;50.184;18.966;2022-12-22T10:24:47;21.50;;;11.90;;
57889;SDS011;43707;50.184;18.966;2022-12-22T10:27:12;25.50;;;11.50;;
57889;SDS011;43707;50.184;18.966;2022-12-22T10:29:38;20.50;;;11.40;;
57889;SDS011;43707;50.184;18.966;2022-12-22T10:32:10;24.50;;;13.20;;
57889;SDS011;43707;50.184;18.966;2022-12-22T10:34:42;26.40;;;12.90;;
57889;SDS011;43707;50.184;18.966;2022-12-22T10:37:28;32.10;;;16.00;;
57889;SDS011;43707;50.184;18.966;2022-12-22T10:40:10;27.10;;;14.70;;
57889;SDS011;43707;50.184;18.966;2022-12-22T10:42:37;25.30;;;14.60;;
57889;SDS011;43707;50.184;18.966;2022-12-22T10:45:03;31.20;;;15.20;;
57889;SDS011;43707;50.184;18.966;2022-12-22T10:47:31;32.70;;;15.00;;
57889;SDS011;43707;50.184;18.966;2022-12-22T10:50:00;29.90;;;15.20;;
57889;SDS011;43707;50.184;18.966;2022-12-22T10:52:26;31.60;;;14.90;;
57889;SDS011;43707;50.184;18.966;2022-12-22T10:54:52;31.00;;;15.10;;
57889;SDS011;43707;50.184;18.966;2022-12-22T10:57:38;25.50;;;14.30;;
57889;SDS011;43707;50.184;18.966;2022-12-22T11:00:24;30.70;;;15.60;;
57889;SDS011;43707;50.184;18.966;2022-12-22T11:02:50;27.60;;;14.90;;
57889;SDS011;43707;50.184;18.966;2022-12-22T11:05:17;27.20;;;14.60;;
57889;SDS011;43707;50.184;18.966;2022-12-22T11:07:43;23.90;;;13.70;;
57889;SDS011;43707;50.184;18.966;2022-12-22T11:10:16;22.60;;;12.80;;
57889;SDS011;43707;50.184;18.966;2022-12-22T11:32:32;26.70;;;13.60;;
57889;SDS011;43707;50.184;18.966;2022-12-22T11:35:19;27.70;;;15.10;;
57889;SDS011;43707;50.184;18.966;2022-12-22T11:37:49;22.80;;;13.80;;
57889;SDS011;43707;50.184;18.966;2022-12-22T11:40:26;23.30;;;12.70;;
57889;SDS011;43707;50.184;18.966;2022-12-22T11:43:02;23.80;;;13.70;;
57889;SDS011;43707;50.184;18.966;2022-12-22T17:03:27;56.30;;;22.10;;
57889;SDS011;43707;50.184;18.966;2022-12-22T17:05:52;52.50;;;21.10;;
57889;SDS011;43707;50.184;18.966;2022-12-22T17:08:21;49.80;;;21.20;;
57889;SDS011;43707;50.184;18.966;2022-12-22T17:10:50;50.50;;;20.20;;
57889;SDS011;43707;50.184;18.966;2022-12-22T17:13:20;46.00;;;20.80;;
57889;SDS011;43707;50.184;18.966;2022-12-22T17:15:49;52.80;;;21.40;;
57889;SDS011;43707;50.184;18.966;2022-12-22T17:18:19;54.80;;;24.90;;
57889;SDS011;43707;50.184;18.966;2022-12-22T17:20:45;66.30;;;29.90;;
57889;SDS011;43707;50.184;18.966;2022-12-22T17:25:57;75.60;;;36.30;;
57889;SDS011;43707;50.184;18.966;2022-12-22T17:28:24;77.10;;;36.00;;
57889;SDS011;43707;50.184;18.966;2022-12-22T17:30:49;65.70;;;29.60;;
57889;SDS011;43707;50.184;18.966;2022-12-22T17:33:15;59.70;;;25.20;;
57889;SDS011;43707;50.184;18.966;2022-12-22T17:35:41;55.60;;;23.10;;
57889;SDS011;43707;50.184;18.966;2022-12-22T17:38:15;54.00;;;24.20;;
57889;SDS011;43707;50.184;18.966;2022-12-22T17:40:42;54.70;;;24.40;;
57889;SDS011;43707;50.184;18.966;2022-12-22T17:43:10;52.80;;;22.20;;
57889;SDS011;43707;50.184;18.966;2022-12-22T17:45:40;46.70;;;19.70;;
57889;SDS011;43707;50.184;18.966;2022-12-22T17:48:06;47.70;;;20.20;;
57889;SDS011;43707;50.184;18.966;2022-12-22T17:50:32;50.00;;;20.10;;
57889;SDS011;43707;50.184;18.966;2022-12-22T17:52:57;40.70;;;18.60;;
57889;SDS011;43707;50.184;18.966;2022-12-22T17:55:24;44.70;;;19.80;;
57889;SDS011;43707;50.184;18.966;2022-12-22T17:57:51;58.30;;;23.20;;
57889;SDS011;43707;50.184;18.966;2022-12-22T18:02:52;49.00;;;21.80;;
57889;SDS011;43707;50.184;18.966;2022-12-22T18:05:27;49.20;;;23.10;;
57889;SDS011;43707;50.184;18.966;2022-12-22T18:10:29;51.80;;;23.10;;
57889;SDS011;43707;50.184;18.966;2022-12-22T18:15:25;50.40;;;23.80;;
57889;SDS011;43707;50.184;18.966;2022-12-22T18:17:53;54.50;;;23.10;;
57889;SDS011;43707;50.184;18.966;2022-12-22T18:20:25;73.20;;;30.10;;
57889;SDS011;43707;50.184;18.966;2022-12-22T18:22:58;45.30;;;20.40;;
57889;SDS011;43707;50.184;18.966;2022-12-22T18:25:36;53.20;;;22.80;;
57889;SDS011;43707;50.184;18.966;2022-12-22T18:28:02;51.00;;;21.20;;
57889;SDS011;43707;50.184;18.966;2022-12-22T18:30:29;55.40;;;22.30;;
57889;SDS011;43707;50.184;18.966;2022-12-22T18:35:44;56.40;;;22.20;;
57889;SDS011;43707;50.184;18.966;2022-12-22T18:38:31;42.30;;;19.50;;
57889;SDS011;43707;50.184;18.966;2022-12-22T18:40:58;50.80;;;22.80;;
57889;SDS011;43707;50.184;18.966;2022-12-22T18:43:23;49.00;;;21.10;;
57889;SDS011;43707;50.184;18.966;2022-12-22T18:45:49;50.90;;;23.30;;
57889;SDS011;43707;50.184;18.966;2022-12-22T18:48:14;47.10;;;22.70;;
57889;SDS011;43707;50.184;18.966;2022-12-22T18:50:40;43.30;;;20.30;;
57889;SDS011;43707;50.184;18.966;2022-12-22T18:56:00;50.20;;;18.80;;
57889;SDS011;43707;50.184;18.966;2022-12-22T18:58:26;42.00;;;19.20;;
57889;SDS011;43707;50.184;18.966;2022-12-22T19:00:52;52.60;;;23.10;;
57889;SDS011;43707;50.184;18.966;2022-12-22T19:03:22;55.10;;;22.20;;
57889;SDS011;43707;50.184;18.966;2022-12-22T19:05:49;42.60;;;19.70;;
57889;SDS011;43707;50.184;18.966;2022-12-22T19:08:15;52.20;;;21.50;;
57889;SDS011;43707;50.184;18.966;2022-12-22T19:10:44;52.00;;;20.90;;
57889;SDS011;43707;50.184;18.966;2022-12-22T19:13:17;53.50;;;22.00;;
57889;SDS011;43707;50.184;18.966;2022-12-22T19:15:54;53.50;;;23.80;;
57889;SDS011;43707;50.184;18.966;2022-12-22T19:18:20;49.00;;;23.00;;
57889;SDS011;43707;50.184;18.966;2022-12-22T19:20:48;52.10;;;22.70;;
57889;SDS011;43707;50.184;18.966;2022-12-22T19:23:14;56.70;;;23.90;;
57889;SDS011;43707;50.184;18.966;2022-12-22T19:25:40;63.50;;;24.30;;
57889;SDS011;43707;50.184;18.966;2022-12-22T19:30:42;51.00;;;22.30;;
57889;SDS011;43707;50.184;18.966;2022-12-22T19:33:08;52.60;;;22.50;;
57889;SDS011;43707;50.184;18.966;2022-12-22T19:35:35;57.60;;;24.10;;
57889;SDS011;43707;50.184;18.966;2022-12-22T19:38:01;64.90;;;25.70;;
57889;SDS011;43707;50.184;18.966;2022-12-22T19:40:29;62.80;;;25.40;;
57889;SDS011;43707;50.184;18.966;2022-12-22T19:42:58;54.70;;;22.70;;
57889;SDS011;43707;50.184;18.966;2022-12-22T19:47:54;65.00;;;26.90;;
57889;SDS011;43707;50.184;18.966;2022-12-22T19:50:21;60.90;;;26.20;;
57889;SDS011;43707;50.184;18.966;2022-12-22T19:52:48;51.80;;;21.60;;
57889;SDS011;43707;50.184;18.966;2022-12-22T19:55:15;50.90;;;23.00;;
57889;SDS011;43707;50.184;18.966;2022-12-22T19:57:41;60.10;;;24.10;;
57889;SDS011;43707;50.184;18.966;2022-12-22T20:00:23;61.10;;;25.20;;
57889;SDS011;43707;50.184;18.966;2022-12-22T20:02:51;56.00;;;23.00;;
57889;SDS011;43707;50.184;18.966;2022-12-22T20:07:51;42.20;;;19.90;;
57889;SDS011;43707;50.184;18.966;2022-12-22T20:10:20;48.70;;;21.50;;
57889;SDS011;43707;50.184;18.966;2022-12-22T20:12:46;53.20;;;20.70;;
57889;SDS011;43707;50.184;18.966;2022-12-22T20:17:44;49.70;;;21.30;;
57889;SDS011;43707;50.184;18.966;2022-12-22T20:20:17;48.50;;;21.30;;
57889;SDS011;43707;50.184;18.966;2022-12-22T20:22:48;49.20;;;21.90;;
57889;SDS011;43707;50.184;18.966;2022-12-22T20:25:16;50.50;;;20.60;;
57889;SDS011;43707;50.184;18.966;2022-12-22T20:27:42;52.50;;;22.90;;
57889;SDS011;43707;50.184;18.966;2022-12-22T20:30:19;49.90;;;22.40;;
57889;SDS011;43707;50.184;18.966;2022-12-22T20:32:45;48.30;;;20.00;;
57889;SDS011;43707;50.184;18.966;2022-12-22T20:35:10;43.30;;;19.70;;
57889;SDS011;43707;50.184;18.966;2022-12-22T20:37:36;55.20;;;21.70;;
57889;SDS011;43707;50.184;18.966;2022-12-22T20:40:01;38.70;;;18.30;;
57889;SDS011;43707;50.184;18.966;2022-12-22T20:42:28;54.30;;;22.30;;
57889;SDS011;43707;50.184;18.966;2022-12-22T20:44:53;40.10;;;18.10;;
57889;SDS011;43707;50.184;18.966;2022-12-22T20:47:18;37.90;;;17.30;;
57889;SDS011;43707;50.184;18.966;2022-12-22T20:49:44;48.40;;;19.30;;
57889;SDS011;43707;50.184;18.966;2022-12-22T20:52:14;38.80;;;17.30;;
57889;SDS011;43707;50.184;18.966;2022-12-22T20:54:41;45.80;;;20.40;;
57889;SDS011;43707;50.184;18.966;2022-12-22T20:57:13;43.50;;;17.40;;
57889;SDS011;43707;50.184;18.966;2022-12-22T20:59:39;34.00;;;16.80;;
57889;SDS011;43707;50.184;18.966;2022-12-22T21:02:08;43.80;;;18.20;;
57889;SDS011;43707;50.184;18.966;2022-12-22T21:04:49;37.10;;;16.40;;
57889;SDS011;43707;50.184;18.966;2022-12-22T21:07:15;43.80;;;17.90;;
57889;SDS011;43707;50.184;18.966;2022-12-22T21:09:40;38.30;;;16.60;;
57889;SDS011;43707;50.184;18.966;2022-12-22T21:12:06;34.20;;;16.50;;
57889;SDS011;43707;50.184;18.966;2022-12-22T21:14:32;32.70;;;17.40;;
57889;SDS011;43707;50.184;18.966;2022-12-22T21:17:01;41.30;;;18.00;;
57889;SDS011;43707;50.184;18.966;2022-12-22T21:19:26;41.20;;;17.40;;
57889;SDS011;43707;50.184;18.966;2022-12-22T21:21:51;38.50;;;15.70;;
57889;SDS011;43707;50.184;18.966;2022-12-22T21:24:17;33.30;;;15.00;;